Time;durP1;ratioP1;P1;durP2;ratioP2;P2;SDS_P1;SDS_P2;PMS_P1;PMS_P2;Temp;Humidity;BMP_temperature;BMP_pressure;BME280_temperature;BME280_humidity;BME280_pressure;Samples;Min_cycle;Max_cycle;Signal;HPM_P1;HPM_P2
2021/11/01 00:02:19;;;;;;;;;76.50;64.00;;;;;-0.23;100.00;99533.97;6278922;20;2500503;-38
2021/11/01 00:04:49;;;;;;;;;86.67;66.00;;;;;-0.02;100.00;99537.06;6282334;20;3656063;-38
2021/11/01 00:07:18;;;;;;;;;93.33;70.33;;;;;0.25;100.00;99534.72;6313705;20;3643974;-38
2021/11/01 00:09:48;;;;;;;;;91.67;70.00;;;;;-0.02;100.00;99531.78;6313848;20;3637838;-38
2021/11/01 00:12:18;;;;;;;;;109.67;80.33;;;;;0.10;100.00;99528.00;6313623;20;3695025;-38
2021/11/01 00:14:48;;;;;;;;;109.00;88.33;;;;;-0.05;100.00;99516.03;6282155;20;3697123;-38
2021/11/01 00:17:18;;;;;;;;;30.17;9.17;;;;;-0.08;100.00;99519.59;6314423;20;1820186;-38
2021/11/01 00:19:48;;;;;;;;;110.00;78.00;;;;;-0.08;100.00;99516.94;6282517;20;3695148;-38
2021/11/01 00:22:18;;;;;;;;;101.67;72.33;;;;;-0.20;100.00;99511.06;6282911;20;3674257;-38
2021/11/01 00:24:49;;;;;;;;;96.00;71.33;;;;;0.01;100.00;99507.97;6278147;20;3648149;-38
2021/11/01 00:27:19;;;;;;;;;90.00;66.67;;;;;0.11;100.00;99509.50;6311036;20;3648150;-38
2021/11/01 00:29:49;;;;;;;;;79.00;61.00;;;;;0.12;100.00;99511.22;6313189;20;2866978;-38
2021/11/01 00:32:19;;;;;;;;;88.00;67.33;;;;;0.30;100.00;99511.72;6313785;20;3639343;-37
2021/11/01 00:34:48;;;;;;;;;87.33;65.67;;;;;-0.04;100.00;99504.56;6313718;20;2891994;-38
2021/11/01 00:37:18;;;;;;;;;85.33;65.33;;;;;-0.30;100.00;99503.31;6313327;20;3643966;-38
2021/11/01 00:39:47;;;;;;;;;77.33;60.67;;;;;-0.40;100.00;99495.63;6313359;20;2885746;-38
2021/11/01 00:42:17;;;;;;;;;91.67;65.33;;;;;-0.05;100.00;99497.56;6312068;20;3651485;-39
2021/11/01 00:44:47;;;;;;;;;86.00;62.33;;;;;0.07;100.00;99499.91;6312675;20;3653361;-38
2021/11/01 00:47:17;;;;;;;;;84.00;61.33;;;;;-0.41;100.00;99494.75;6308515;20;3655912;-38
2021/11/01 00:49:47;;;;;;;;;79.67;59.67;;;;;-0.57;100.00;99495.97;6309632;20;3638779;-38
2021/11/01 00:52:25;;;;;;;;;84.33;63.00;;;;;-0.48;100.00;99490.50;6313226;20;2883575;-37
2021/11/01 00:55:00;;;;;;;;;87.67;64.00;;;;;-0.19;100.00;99487.25;6311876;20;3658558;-37
2021/11/01 00:57:31;;;;;;;;;92.67;65.33;;;;;-0.35;100.00;99484.09;6310569;20;3655459;-38
2021/11/01 01:00:02;;;;;;;;;88.33;65.33;;;;;-0.54;100.00;99478.31;6311667;20;3655579;-38
2021/11/01 01:02:33;;;;;;;;;83.00;62.00;;;;;-0.53;100.00;99472.13;6311860;20;3650377;-37
2021/11/01 01:05:05;;;;;;;;;89.33;66.33;;;;;-0.59;100.00;99471.41;6309011;20;3658616;-38
2021/11/01 01:07:36;;;;;;;;;82.67;64.67;;;;;-0.68;100.00;99467.19;6311306;20;3627398;-38
2021/11/01 01:10:07;;;;;;;;;91.00;68.00;;;;;-0.43;100.00;99466.69;6310767;20;3649203;-37
2021/11/01 01:12:41;;;;;;;;;85.00;64.00;;;;;-0.68;100.00;99460.13;6310919;20;3653349;-38
2021/11/01 01:15:19;;;;;;;;;74.50;57.00;;;;;-0.60;100.00;99464.41;6310322;20;2879431;-38
2021/11/01 01:17:50;;;;;;;;;84.33;64.33;;;;;-0.81;100.00;99450.72;6277556;20;3621203;-38
2021/11/01 01:20:21;;;;;;;;;86.00;64.00;;;;;-0.81;100.00;99448.09;6310991;20;3657533;-37
2021/11/01 01:22:51;;;;;;;;;90.33;63.33;;;;;-0.69;100.00;99445.19;6312229;20;3655485;-37
2021/11/01 01:25:38;;;;;;;;;83.33;64.00;;;;;-0.80;100.00;99439.28;6309995;20;3645038;-38
2021/11/01 01:28:07;;;;;;;;;86.00;68.00;;;;;-0.71;100.00;99439.13;6305693;20;2508593;-37
2021/11/01 01:30:37;;;;;;;;;90.33;65.00;;;;;-0.60;100.00;99436.25;6279444;20;3659704;-38
2021/11/01 01:33:08;;;;;;;;;85.50;63.00;;;;;-0.75;100.00;99437.44;6307170;20;2506614;-38
2021/11/01 01:35:40;;;;;;;;;89.00;70.33;;;;;-0.64;100.00;99431.06;6280637;20;2880449;-38
2021/11/01 01:38:14;;;;;;;;;89.67;67.00;;;;;-0.80;100.00;99436.66;6308733;20;3647140;-37
2021/11/01 01:40:43;;;;;;;;;86.67;63.67;;;;;-0.86;100.00;99435.91;6316132;20;3649212;-37
2021/11/01 01:43:13;;;;;;;;;90.33;68.00;;;;;-0.87;100.00;99429.75;6315635;20;3659626;-38
2021/11/01 01:45:43;;;;;;;;;87.33;66.33;;;;;-0.77;100.00;99427.81;6316353;20;3660695;-37
2021/11/01 01:48:13;;;;;;;;;91.67;68.67;;;;;-0.69;100.00;99434.66;6314844;20;3656512;-38
2021/11/01 01:50:44;;;;;;;;;94.67;66.67;;;;;-0.62;100.00;99430.16;6316792;20;3655590;-38
2021/11/01 01:53:13;;;;;;;;;92.00;69.00;;;;;-1.01;100.00;99423.88;6316342;20;3656489;-37
2021/11/01 01:55:42;;;;;;;;;89.00;66.00;;;;;-0.87;100.00;99429.75;6315957;20;2900294;-37
2021/11/01 01:58:12;;;;;;;;;97.00;70.00;;;;;-0.98;100.00;99421.19;6281886;20;3657603;-38
2021/11/01 02:03:18;;;;;;;;;93.67;67.67;;;;;-1.04;100.00;99416.03;6314338;20;3645057;-37
2021/11/01 02:06:03;;;;;;;;;86.00;65.50;;;;;-1.10;100.00;99411.75;6315352;20;2874197;-37
2021/11/01 02:09:04;;;;;;;;;92.33;67.33;;;;;-1.15;100.00;99411.84;6281594;20;3654481;-37
2021/11/01 02:11:58;;;;;;;;;81.33;60.00;;;;;-0.97;100.00;99420.31;6315253;20;2886864;-38
2021/11/01 02:14:56;;;;;;;;;78.67;64.00;;;;;-0.52;100.00;99410.59;6315618;20;2876518;-38
2021/11/01 02:17:30;;;;;;;;;88.00;64.00;;;;;-0.80;100.00;99410.28;6310339;20;3649608;-38
2021/11/01 02:20:09;;;;;;;;;85.33;61.33;;;;;-1.29;100.00;99411.25;6315929;20;3656472;-37
2021/11/01 02:23:04;;;;;;;;;85.67;64.33;;;;;-1.03;100.00;99404.59;6312157;20;3655531;-38
2021/11/01 02:25:51;;;;;;;;;85.67;66.67;;;;;-0.92;100.00;99410.56;6315110;20;2884759;-38
2021/11/01 02:28:31;;;;;;;;;87.33;67.00;;;;;-0.54;100.00;99416.81;6310853;20;3648232;-38
2021/11/01 02:31:02;;;;;;;;;88.00;65.67;;;;;-0.72;100.00;99418.03;6313249;20;3670006;-37
2021/11/01 02:33:33;;;;;;;;;89.33;66.00;;;;;-0.62;100.00;99422.22;6312451;20;3654436;-38
2021/11/01 02:36:04;;;;;;;;;82.67;63.00;;;;;-0.65;100.00;99418.81;6312309;20;2891957;-38
2021/11/01 02:38:34;;;;;;;;;84.67;65.00;;;;;-0.69;100.00;99417.97;6313652;20;2896261;-37
2021/11/01 02:41:34;;;;;;;;;87.50;66.50;;;;;-0.77;100.00;99412.00;6313195;20;2881579;-38
2021/11/01 02:44:08;;;;;;;;;91.33;68.67;;;;;-0.77;100.00;99404.94;6284342;20;3655480;-37
2021/11/01 02:46:43;;;;;;;;;85.33;62.67;;;;;-1.13;100.00;99396.03;6314193;20;3649300;-38
2021/11/01 02:49:13;;;;;;;;;89.67;67.33;;;;;-1.21;100.00;99398.78;6312797;20;3641903;-37
2021/11/01 02:51:43;;;;;;;;;91.67;66.33;;;;;-0.67;100.00;99401.22;6313368;20;3643014;-38
2021/11/01 02:54:12;;;;;;;;;89.67;66.00;;;;;-0.91;100.00;99397.31;6314410;20;3661753;-37
2021/11/01 02:56:43;;;;;;;;;99.00;70.33;;;;;-1.09;100.00;99396.81;6314079;20;3651303;-38
2021/11/01 02:59:14;;;;;;;;;94.00;68.00;;;;;-1.15;100.00;99398.66;6311605;20;3646122;-38
2021/11/01 03:01:43;;;;;;;;;95.33;67.33;;;;;-0.86;100.00;99404.28;6313510;20;3654412;-38
2021/11/01 03:04:13;;;;;;;;;97.33;68.67;;;;;-0.88;100.00;99404.31;6314773;20;3644014;-37
2021/11/01 03:06:43;;;;;;;;;96.00;71.00;;;;;-1.05;100.00;99398.47;6314757;20;2888881;-37
2021/11/01 03:09:13;;;;;;;;;87.33;69.00;;;;;-1.16;100.00;99396.94;6310670;20;2879598;-38
2021/11/01 03:11:43;;;;;;;;;96.00;71.33;;;;;-1.11;100.00;99395.09;6311939;20;3656574;-37
2021/11/01 03:14:18;;;;;;;;;95.33;68.33;;;;;-0.94;100.00;99391.25;6312066;20;3650274;-37
2021/11/01 03:16:50;;;;;;;;;97.33;71.67;;;;;-1.03;100.00;99386.16;6311745;20;3656525;-38
2021/11/01 03:19:23;;;;;;;;;95.33;70.00;;;;;-0.91;100.00;99384.16;6311397;20;3650348;-37
2021/11/01 03:21:59;;;;;;;;;100.33;71.00;;;;;-0.89;100.00;99389.41;6311029;20;3678565;-38
2021/11/01 03:24:35;;;;;;;;;95.00;71.67;;;;;-1.00;100.00;99379.09;6310815;20;3653336;-37
2021/11/01 03:27:08;;;;;;;;;104.33;77.00;;;;;-1.22;100.00;99380.38;6314537;20;3687755;-37
2021/11/01 03:29:41;;;;;;;;;100.00;72.00;;;;;-1.32;100.00;99384.94;6277263;20;3675220;-37
2021/11/01 03:32:13;;;;;;;;;99.67;76.33;;;;;-1.17;100.00;99384.66;6312925;20;3657528;-37
2021/11/01 03:34:44;;;;;;;;;106.00;79.67;;;;;-1.21;100.00;99374.19;6310924;20;3682536;-37
2021/11/01 03:37:17;;;;;;;;;97.00;73.00;;;;;-1.07;100.00;99373.97;6277678;20;3662926;-38
2021/11/01 03:39:48;;;;;;;;;104.33;80.67;;;;;-1.12;100.00;99372.28;6311468;20;3690848;-38
2021/11/01 03:42:18;;;;;;;;;94.67;74.67;;;;;-0.92;100.00;99366.63;6280095;20;2891002;-38
2021/11/01 03:44:53;;;;;;;;;100.33;76.00;;;;;-1.23;100.00;99371.63;6311056;20;3662753;-37
2021/11/01 03:47:25;;;;;;;;;100.00;69.33;;;;;-1.26;100.00;99371.69;6278177;20;3672110;-37
2021/11/01 03:49:58;;;;;;;;;103.33;76.67;;;;;-1.50;100.00;99364.22;6309295;20;3689834;-38
2021/11/01 03:52:33;;;;;;;;;97.00;71.67;;;;;-1.79;100.00;99358.56;6276353;20;3663885;-37
2021/11/01 03:55:04;;;;;;;;;97.00;70.33;;;;;-1.63;100.00;99358.31;6313891;20;3655462;-37
2021/11/01 03:57:34;;;;;;;;;96.33;69.33;;;;;-1.44;100.00;99358.84;6313128;20;3648284;-38
2021/11/01 04:00:07;;;;;;;;;86.33;68.00;;;;;-1.39;100.00;99352.59;6312457;20;2878438;-37
2021/11/01 04:02:37;;;;;;;;;90.33;69.00;;;;;-1.41;100.00;99354.38;6310619;20;3640833;-37
2021/11/01 04:05:08;;;;;;;;;89.33;61.67;;;;;-1.48;100.00;99346.63;6314030;20;2903528;-37
2021/11/01 04:07:38;;;;;;;;;108.33;84.00;;;;;-1.19;100.00;99340.81;6313902;20;3699198;-38
2021/11/01 04:10:09;;;;;;;;;101.33;77.67;;;;;-1.57;100.00;99340.63;6280271;20;3682536;-37
2021/11/01 04:12:39;;;;;;;;;101.33;73.00;;;;;-1.30;100.00;99342.78;6279366;20;3667909;-38
2021/11/01 04:15:24;;;;;;;;;99.33;78.67;;;;;-1.26;100.00;99342.72;6310561;20;3658578;-38
2021/11/01 04:18:02;;;;;;;;;97.33;72.00;;;;;-1.03;100.00;99341.38;6309652;20;3659640;-38
2021/11/01 04:20:54;;;;;;;;;101.33;78.67;;;;;-1.22;100.00;99339.09;6312760;20;3682650;-38
2021/11/01 04:23:30;;;;;;;;;94.33;68.67;;;;;-1.22;100.00;99333.81;6311772;20;3635657;-38
2021/11/01 04:26:01;;;;;;;;;76.50;51.50;;;;;-1.02;100.00;99336.09;6311328;20;2858613;-37
2021/11/01 04:28:32;;;;;;;;;111.33;78.33;;;;;-0.91;100.00;99330.59;6279826;20;3689867;-37
2021/11/01 04:31:08;;;;;;;;;111.00;88.67;;;;;-0.49;100.00;99335.84;6280728;20;3701333;-37
2021/11/01 04:33:41;;;;;;;;;100.33;75.00;;;;;-1.19;100.00;99333.75;6278776;20;3671066;-37
2021/11/01 04:36:11;;;;;;;;;104.67;84.67;;;;;-1.31;100.00;99334.03;6281124;20;3671063;-38
2021/11/01 04:41:21;;;;;;;;;107.67;81.67;;;;;-1.28;100.00;99333.97;6281233;20;3691939;-37
2021/11/01 04:55:07;;;;;;;;;110.67;81.33;;;;;-1.34;100.00;99307.75;6278997;20;3695123;-38
2021/11/01 04:57:37;;;;;;;;;106.00;84.33;;;;;-1.37;100.00;99313.94;6279754;20;3683583;-38
2021/11/01 05:00:08;;;;;;;;;109.00;82.00;;;;;-1.05;100.00;99317.72;6280705;20;3694140;-37
2021/11/01 05:02:43;;;;;;;;;107.67;86.00;;;;;-1.09;100.00;99317.78;6277869;20;3688878;-37
2021/11/01 05:05:15;;;;;;;;;105.33;88.33;;;;;-1.18;100.00;99317.09;6280387;20;3697164;-38
2021/11/01 05:07:45;;;;;;;;;104.33;87.00;;;;;-1.20;100.00;99310.97;6277372;20;3684701;-37
2021/11/01 05:13:24;;;;;;;;;114.67;90.00;;;;;-1.14;100.00;99313.47;6274690;20;3696055;-37
2021/11/01 05:16:01;;;;;;;;;105.00;86.67;;;;;-1.38;100.00;99316.59;6282991;20;3691003;-37
2021/11/01 05:21:25;;;;;;;;;109.67;85.33;;;;;-1.27;100.00;99308.47;6286041;20;3701350;-37
2021/11/01 05:24:00;;;;;;;;;95.00;74.33;;;;;-1.41;100.00;99312.25;6283831;20;2886856;-38
2021/11/01 05:29:18;;;;;;;;;115.00;92.67;;;;;-1.21;100.00;99324.16;6284056;20;3695093;-38
2021/11/01 05:31:57;;;;;;;;;196.75;145.00;;;;;-1.43;100.00;99313.19;6283338;20;4495030;-37
2021/11/01 05:34:26;;;;;;;;;194.33;144.67;;;;;-1.38;100.00;99316.59;6283131;20;3709599;-39
2021/11/01 05:36:57;;;;;;;;;174.00;137.25;;;;;-1.43;100.00;99323.72;6284311;20;3723202;-38
2021/11/01 05:39:28;;;;;;;;;139.00;106.50;;;;;-1.62;100.00;99313.53;6281657;20;3723164;-38
2021/11/01 05:41:58;;;;;;;;;202.25;144.00;;;;;-1.69;100.00;99318.94;6317240;20;4482011;-39
2021/11/01 05:44:28;;;;;;;;;261.00;190.00;;;;;-1.51;100.00;99310.69;6313054;20;3695131;-37
2021/11/01 05:46:59;;;;;;;;;468.00;323.00;;;;;-0.98;100.00;99313.16;6281810;20;3746184;-38
2021/11/01 05:49:30;;;;;;;;;356.75;246.75;;;;;-1.25;100.00;99309.34;6280801;20;4508758;-38
2021/11/01 05:52:03;;;;;;;;;313.67;198.00;;;;;-1.42;100.00;99318.44;6284814;20;3712801;-38
2021/11/01 05:54:33;;;;;;;;;136.67;84.50;;;;;-1.37;100.00;99313.06;6282419;20;3686745;-46
2021/11/01 06:05:15;;;;;;;;;145.67;118.67;;;;;-0.68;100.00;99314.28;6285135;20;3714792;-37
2021/11/01 06:15:59;;;;;;;;;130.75;104.00;;;;;-0.28;100.00;99321.28;6314251;20;3713818;-37
2021/11/01 06:18:36;;;;;;;;;109.67;83.00;;;;;-0.10;100.00;99320.84;6281437;20;3693083;-38
2021/11/01 06:21:15;;;;;;;;;72.00;27.67;;;;;-0.11;100.00;99321.75;6283399;20;3616993;-38
2021/11/01 06:23:52;;;;;;;;;160.50;130.50;;;;;-0.13;100.00;99317.41;6280773;20;4498166;-38
2021/11/01 06:26:25;;;;;;;;;184.67;121.00;;;;;-0.49;100.00;99320.00;6283783;20;3695142;-37
2021/11/01 06:28:59;;;;;;;;;255.50;200.50;;;;;0.03;100.00;99324.06;6282242;20;3584051;-38
2021/11/01 06:31:32;;;;;;;;;280.00;212.00;;;;;0.15;100.00;99334.28;6280866;20;3698122;-38
2021/11/01 06:39:28;;;;;;;;;176.50;151.25;;;;;2.94;90.72;99331.97;6313534;20;4477357;-38
2021/11/01 06:45:27;;;;;;;;;188.00;152.25;;;;;4.32;83.43;99335.44;6283181;20;4500211;-38
2021/11/01 06:56:17;;;;;;;;;105.00;92.33;;;;;4.48;79.03;99353.41;6283260;20;3681542;-38
2021/11/01 07:14:04;;;;;;;;;122.00;99.00;;;;;3.98;84.36;99346.59;6276581;20;3680586;-39
2021/11/01 07:21:05;;;;;;;;;100.67;78.33;;;;;2.86;94.00;99341.06;6281997;20;3684705;-38
2021/11/01 08:22:46;;;;;;;;;54.00;44.00;;;;;6.34;86.42;99319.97;6317602;20;2869018;-39
2021/11/01 08:28:14;;;;;;;;;85.33;60.67;;;;;7.02;85.46;99317.34;6284070;20;3653370;-39
2021/11/01 09:20:16;;;;;;;;;58.33;46.67;;;;;9.95;76.43;99260.81;6315749;20;3632726;-38
2021/11/01 09:36:25;;;;;;;;;66.67;49.33;;;;;10.64;74.31;99254.41;6315652;20;3644043;-38
2021/11/01 09:41:26;;;;;;;;;53.67;43.33;;;;;10.94;72.56;99242.47;6280614;20;3602347;-38
2021/11/01 09:44:09;;;;;;;;;55.00;44.67;;;;;10.87;72.38;99241.19;6318855;20;3624391;-38
2021/11/01 09:46:38;;;;;;;;;52.00;40.00;;;;;11.43;71.42;99233.63;6281886;20;2856525;-38
2021/11/01 09:49:15;;;;;;;;;53.33;42.00;;;;;11.37;71.72;99234.03;6279801;20;3607537;-39
2021/11/01 09:51:54;;;;;;;;;54.00;44.00;;;;;11.70;69.79;99224.50;6315174;20;3609703;-40
2021/11/01 09:54:29;;;;;;;;;54.00;44.00;;;;;11.29;71.06;99220.31;6314499;20;2862301;-40
2021/11/01 09:57:32;;;;;;;;;48.33;40.00;;;;;11.00;71.12;99215.19;6313657;20;3608555;-40
2021/11/01 09:59:59;;;;;;;;;52.00;41.00;;;;;11.16;73.02;99215.84;6313785;20;3603450;-39
2021/11/01 10:02:29;;;;;;;;;46.33;36.00;;;;;11.16;71.70;99215.84;6318096;20;3614871;-39
2021/11/01 10:04:58;;;;;;;;;48.33;36.67;;;;;11.29;70.98;99204.19;6324032;20;3597134;-39
2021/11/01 10:07:33;;;;;;;;;46.67;37.33;;;;;11.50;70.16;99213.38;6285103;20;2858704;-40
2021/11/01 10:10:07;;;;;;;;;52.33;41.67;;;;;11.63;69.19;99208.81;6322889;20;3597085;-40
2021/11/01 10:12:42;;;;;;;;;54.67;39.00;;;;;12.15;68.86;99208.63;6286396;20;3626840;-42
2021/11/01 10:18:19;;;;;;;;;104.00;89.67;;;;;12.28;66.16;99195.94;6319121;20;3699161;-40
2021/11/01 10:20:59;;;;;;;;;91.33;82.33;;;;;11.55;67.92;99195.06;6285733;20;3667945;-43
2021/11/01 10:23:34;;;;;;;;;86.50;71.00;;;;;11.74;67.44;99188.34;6316310;20;1941016;-40
2021/11/01 10:26:18;;;;;;;;;220.00;185.00;;;;;11.79;68.27;99178.09;6288332;20;4464768;-42
2021/11/01 10:28:52;;;;;;;;;79.67;62.00;;;;;11.69;68.64;99180.63;6285652;20;3657654;-41
2021/11/01 10:31:26;;;;;;;;;52.00;42.67;;;;;11.80;68.64;99174.44;6286828;20;2862893;-42
2021/11/01 10:34:10;;;;;;;;;311.25;253.00;;;;;12.19;67.85;99165.22;6317829;20;4520098;-41
2021/11/01 10:36:43;;;;;;;;;56.67;43.67;;;;;12.05;67.80;99160.88;6285409;20;3621465;-40
2021/11/01 10:39:21;;;;;;;;;90.75;78.25;;;;;11.78;68.17;99154.88;6318857;20;4417985;-41
2021/11/01 10:42:13;;;;;;;;;54.67;43.00;;;;;11.88;68.78;99165.84;6319768;20;3608532;-40
2021/11/01 10:45:01;;;;;;;;;76.67;59.33;;;;;12.24;67.61;99156.78;6319742;20;3636680;-40
2021/11/01 10:56:56;;;;;;;;;67.67;53.00;;;;;12.94;65.50;99132.38;6317119;20;3623123;-39
2021/11/01 11:10:48;;;;;;;;;49.00;39.00;;;;;12.79;65.96;99138.97;6319711;20;2754522;-40
2021/11/01 11:13:15;;;;;;;;;55.67;44.00;;;;;13.15;64.10;99126.25;6319345;20;3614856;-39
2021/11/01 11:15:50;;;;;;;;;51.00;41.67;;;;;13.18;64.61;99117.91;6284456;20;3608573;-42
2021/11/01 11:21:02;;;;;;;;;47.67;37.00;;;;;13.11;64.28;99114.88;6319502;20;3611709;-39
2021/11/01 11:26:25;;;;;;;;;44.00;34.00;;;;;13.27;63.62;99102.84;6316745;20;3587833;-40
2021/11/01 11:42:14;;;;;;;;;42.33;34.67;;;;;13.66;63.13;99090.56;6319201;20;3609725;-42
2021/11/01 11:49:25;;;;;;;;;43.00;36.67;;;;;12.88;64.70;99089.78;6285028;20;3610616;-40
2021/11/01 11:52:06;;;;;;;;;45.33;36.67;;;;;12.72;65.43;99092.00;6320700;20;3596044;-41
2021/11/01 11:54:48;;;;;;;;;39.33;34.67;;;;;12.88;65.27;99083.53;6286628;20;3602403;-39
2021/11/01 11:57:30;;;;;;;;;41.67;37.33;;;;;13.02;64.42;99079.72;6287146;20;3599361;-42
2021/11/01 12:00:08;;;;;;;;;43.67;34.00;;;;;12.99;63.97;99072.72;6286922;20;3620212;-41
2021/11/01 12:02:44;;;;;;;;;79.00;64.25;;;;;13.50;63.48;99065.88;6316805;20;3637797;-42
2021/11/01 12:05:47;;;;;;;;;51.33;41.33;;;;;13.68;63.45;99064.34;6315902;20;3614807;-40
2021/11/01 12:08:34;;;;;;;;;45.67;37.00;;;;;13.85;62.78;99046.72;6314240;20;3600362;-40
2021/11/01 12:19:18;;;;;;;;;40.33;35.00;;;;;14.10;61.16;99023.00;6289961;20;3600315;-42
2021/11/01 12:21:51;;;;;;;;;36.33;33.67;;;;;14.20;61.24;99019.38;6287345;20;3601284;-43
2021/11/01 12:24:21;;;;;;;;;38.00;33.67;;;;;14.28;60.99;99014.16;6286276;20;3591908;-43
2021/11/01 12:27:06;;;;;;;;;43.00;36.67;;;;;14.17;61.34;99018.81;6289847;20;3596050;-44
2021/11/01 12:29:38;;;;;;;;;41.00;33.33;;;;;13.96;61.69;99008.88;6283823;20;3604434;-44
2021/11/01 12:32:13;;;;;;;;;42.50;33.75;;;;;14.21;60.98;99004.88;6317476;20;3615880;-42
2021/11/01 12:35:03;;;;;;;;;34.00;32.00;;;;;14.21;60.71;98991.38;6319699;20;3593971;-44
2021/11/01 12:37:39;;;;;;;;;39.33;34.00;;;;;13.97;60.63;98991.69;6285235;20;3615961;-43
2021/11/01 12:40:37;;;;;;;;;44.33;36.00;;;;;13.77;61.53;98996.13;6285272;20;3607587;-42
2021/11/01 12:43:31;;;;;;;;;40.00;35.00;;;;;13.88;61.67;98986.25;6286786;20;3619061;-42
2021/11/01 12:57:45;;;;;;;;;57.00;39.00;;;;;14.16;60.54;98977.44;6312571;20;4365964;-43
2021/11/01 13:00:15;;;;;;;;;36.33;34.33;;;;;13.91;60.71;98972.47;6314555;20;3570050;-44
2021/11/01 13:02:48;;;;;;;;;32.00;31.33;;;;;13.72;60.71;98975.94;6282699;20;3594999;-42
2021/11/01 13:05:25;;;;;;;;;39.00;29.33;;;;;13.62;61.46;98973.16;6283823;20;3634645;-42
2021/11/01 13:07:58;;;;;;;;;37.00;32.33;;;;;13.72;61.38;98979.47;6319165;20;3601660;-43
2021/11/01 13:10:55;;;;;;;;;36.00;31.33;;;;;13.92;60.66;98979.59;6285852;20;3595120;-43
2021/11/01 13:19:20;;;;;;;;;44.50;38.00;;;;;14.07;60.63;98961.22;6282227;20;2838825;-43
2021/11/01 13:22:13;;;;;;;;;51.00;38.33;;;;;14.04;60.78;98957.78;6284455;20;3616937;-43
2021/11/01 13:38:56;;;;;;;;;46.00;37.33;;;;;13.81;62.35;98937.34;6289751;20;3593006;-44
2021/11/01 13:41:28;;;;;;;;;39.00;34.00;;;;;13.55;62.22;98942.28;6283814;20;2499349;-44
2021/11/01 13:44:14;;;;;;;;;39.33;34.33;;;;;13.46;62.66;98930.47;6296567;20;3590837;-43
2021/11/01 13:47:02;;;;;;;;;44.33;36.00;;;;;13.48;62.23;98924.91;6287032;20;2852335;-43
2021/11/01 13:49:36;;;;;;;;;44.00;37.00;;;;;13.37;62.45;98923.97;6315518;20;2856337;-42
2021/11/01 13:55:07;;;;;;;;;59.00;46.33;;;;;13.21;63.53;98917.31;6288395;20;3614819;-42
2021/11/01 13:58:12;;;;;;;;;39.00;34.00;;;;;13.28;63.00;98922.09;6322719;20;3612858;-43
2021/11/01 14:11:56;;;;;;;;;48.00;35.00;;;;;13.43;62.71;98908.28;6284887;20;3647139;-41
2021/11/01 14:26:43;;;;;;;;;41.00;35.33;;;;;13.23;63.96;98910.81;6289073;20;3617946;-42
2021/11/01 14:28:37;;;;;;;;;40.00;32.33;;;;;13.23;63.65;98904.56;6287237;20;3590846;-40
2021/11/01 15:08:25;;;;;;;;;71.33;54.00;;;;;12.92;64.75;98870.28;6284995;20;3636693;-41
2021/11/01 15:27:30;;;;;;;;;68.50;50.75;;;;;12.48;67.24;98856.03;6321095;20;4404468;-40
2021/11/01 15:35:48;;;;;;;;;58.67;47.67;;;;;12.47;66.84;98848.06;6313402;20;3609582;-40
2021/11/01 15:38:40;;;;;;;;;65.50;50.75;;;;;12.38;67.87;98847.00;6319830;20;3643047;-41
2021/11/01 16:19:43;;;;;;;;;73.67;56.33;;;;;12.33;69.73;98830.34;6283227;20;3639861;-42
2021/11/01 16:22:15;;;;;;;;;70.33;55.67;;;;;12.64;68.02;98827.81;6285633;20;3619012;-42
2021/11/01 16:24:46;;;;;;;;;85.75;75.75;;;;;12.34;68.58;98826.69;6286327;20;4409562;-41
2021/11/01 16:27:19;;;;;;;;;68.75;52.25;;;;;12.10;69.58;98828.69;6312422;20;3661906;-42
2021/11/01 16:32:43;;;;;;;;;50.00;38.33;;;;;12.02;69.66;98832.88;6312220;20;3606496;-43
2021/11/01 16:35:25;;;;;;;;;51.67;42.00;;;;;11.97;70.47;98832.38;6311063;20;3602313;-43
2021/11/01 16:40:55;;;;;;;;;58.33;45.67;;;;;11.84;71.18;98837.00;6283816;20;3614846;-42
2021/11/01 16:43:27;;;;;;;;;48.67;40.00;;;;;11.99;70.14;98833.13;6280106;20;2851792;-41
2021/11/01 16:45:57;;;;;;;;;57.00;46.00;;;;;11.91;70.90;98827.50;6311699;20;3605421;-41
2021/11/01 16:48:27;;;;;;;;;53.33;43.67;;;;;11.90;71.07;98828.50;6310014;20;3600263;-41
2021/11/01 16:50:56;;;;;;;;;52.33;41.33;;;;;11.91;71.25;98823.97;6313973;20;3603329;-42
2021/11/01 16:53:27;;;;;;;;;19.33;13.00;;;;;11.76;71.51;98824.19;6282866;20;3551243;-41
2021/11/01 16:56:51;;;;;;;;;51.67;39.00;;;;;11.90;71.09;98827.63;6313680;20;3635639;-43
2021/11/01 16:58:58;;;;;;;;;60.00;47.67;;;;;12.00;70.61;98828.59;6311538;20;3611676;-42
2021/11/01 17:01:28;;;;;;;;;62.00;47.00;;;;;12.00;70.70;98829.44;6311784;20;4397055;-42
2021/11/01 17:04:02;;;;;;;;;69.33;56.00;;;;;11.89;71.09;98826.78;6304249;20;3602432;-41
2021/11/01 17:22:58;;;;;;;;;92.50;74.00;;;;;11.90;71.50;98822.22;6276762;20;1947221;-43
2021/11/01 17:28:40;;;;;;;;;63.67;50.33;;;;;11.87;72.00;98820.66;6277096;20;3611694;-41
2021/11/01 18:36:31;;;;;;;;;74.67;58.67;;;;;11.05;78.82;98768.94;6287094;20;3605459;-40
2021/11/01 18:37:05;;;;;;;;;67.33;53.00;;;;;11.03;78.36;98766.34;6317189;20;3616918;-40
2021/11/01 18:45:28;;;;;;;;;70.33;54.00;;;;;11.04;78.30;98748.44;6284545;20;3629679;-40
2021/11/01 18:50:57;;;;;;;;;69.50;53.50;;;;;11.13;77.82;98743.16;6318594;20;3636777;-41
2021/11/01 18:53:44;;;;;;;;;71.75;53.50;;;;;11.10;77.54;98743.41;6319777;20;3646134;-40
2021/11/01 18:56:13;;;;;;;;;70.00;55.00;;;;;11.10;76.89;98746.09;6317177;20;3631581;-43
2021/11/01 18:58:44;;;;;;;;;73.25;55.50;;;;;11.21;75.89;98747.94;6288262;20;4397094;-43
2021/11/01 19:01:14;;;;;;;;;68.00;53.33;;;;;11.14;76.08;98742.22;6315573;20;3630569;-42
2021/11/01 19:03:52;;;;;;;;;72.67;54.00;;;;;11.15;76.48;98738.53;6320224;20;3629405;-41
2021/11/01 20:05:23;;;;;;;;;53.00;44.67;;;;;10.97;75.72;98726.56;6280738;20;2860925;-41
2021/11/01 21:27:02;;;;;;;;;56.00;47.33;;;;;10.59;76.28;98706.25;6314981;20;2859841;-40
2021/11/01 21:29:36;;;;;;;;;59.00;46.00;;;;;10.57;76.08;98700.13;6315993;20;3611706;-40
2021/11/01 21:32:07;;;;;;;;;68.00;54.33;;;;;10.49;76.34;98694.50;6283756;20;3612067;-41
2021/11/01 21:34:38;;;;;;;;;58.67;48.33;;;;;10.47;76.51;98691.94;6315714;20;2863921;-40
2021/11/01 21:37:09;;;;;;;;;58.33;46.33;;;;;10.57;75.77;98675.97;6314009;20;3609608;-45
2021/11/01 21:39:38;;;;;;;;;53.00;42.67;;;;;10.51;75.91;98681.84;6314377;20;3600235;-40
2021/11/01 21:42:08;;;;;;;;;55.33;44.00;;;;;10.53;76.09;98675.38;6314267;20;2860866;-42
2021/11/01 21:44:39;;;;;;;;;53.67;44.33;;;;;10.43;75.99;98673.53;6315290;20;2860887;-42
2021/11/01 21:47:09;;;;;;;;;51.33;43.00;;;;;10.42;75.81;98674.47;6314430;20;2860727;-42
2021/11/01 21:49:39;;;;;;;;;44.00;37.33;;;;;10.46;75.69;98675.97;6311765;20;2863064;-42
2021/11/01 21:52:11;;;;;;;;;55.00;44.33;;;;;10.49;75.23;98676.56;6314976;20;2861702;-41
2021/11/01 21:57:35;;;;;;;;;53.00;42.00;;;;;10.45;75.53;98672.44;6316565;20;2856761;-42
2021/11/01 22:17:01;;;;;;;;;54.33;45.33;;;;;10.39;75.38;98647.88;6287770;20;3613746;-42
2021/11/01 22:33:18;;;;;;;;;48.00;38.50;;;;;10.44;73.54;98621.56;6289524;20;2860794;-41
2021/11/01 22:46:57;;;;;;;;;46.50;36.50;;;;;10.14;73.76;98604.16;6319479;20;2857559;-45
2021/11/01 22:57:43;;;;;;;;;52.00;40.00;;;;;10.11;72.40;98594.53;6286541;20;3618992;-41
2021/11/01 23:00:20;;;;;;;;;42.00;37.00;;;;;10.11;72.09;98591.00;6314236;20;2832818;-41
2021/11/01 23:02:57;;;;;;;;;48.50;41.00;;;;;10.16;72.06;98580.72;6288140;20;2850488;-41
2021/11/01 23:33:30;;;;;;;;;46.00;38.50;;;;;9.89;71.05;98525.59;6285664;20;2857545;-41
2021/11/01 23:36:00;;;;;;;;;55.67;44.67;;;;;9.89;70.97;98519.38;6286501;20;2858589;-40
2021/11/01 23:38:29;;;;;;;;;53.33;44.00;;;;;9.79;71.22;98524.59;6317120;20;2858680;-41
2021/11/01 23:40:59;;;;;;;;;56.33;45.67;;;;;9.92;71.57;98523.66;6315509;20;3610843;-40
2021/11/01 23:43:30;;;;;;;;;58.67;47.67;;;;;9.82;71.26;98524.38;6315941;20;2850256;-43